createdAt,value
2023-03-15T00:05:21.648Z,100956.91
2023-03-15T00:15:47.480Z,100964.56
2023-03-15T00:26:08.857Z,100971.38
2023-03-15T00:36:31.938Z,100971.38
2023-03-15T00:46:53.424Z,100984.19
2023-03-15T00:57:14.793Z,101012.31
2023-03-15T01:07:36.240Z,101027.69
2023-03-15T01:17:57.636Z,101057.53
2023-03-15T01:28:19.060Z,101058.41
2023-03-15T01:38:43.628Z,101078.00
2023-03-15T01:49:12.498Z,101080.53
2023-03-15T01:59:38.783Z,101087.34
2023-03-15T02:10:03.634Z,101103.53
2023-03-15T02:20:27.428Z,101109.53
2023-03-15T02:30:49.243Z,101118.06
2023-03-15T02:41:11.414Z,101122.34
2023-03-15T02:51:33.309Z,101145.38
2023-03-15T03:01:54.719Z,101155.63
2023-03-15T03:12:16.092Z,101179.50
2023-03-15T03:22:37.722Z,101200.84
2023-03-15T03:32:59.184Z,101234.09
2023-03-15T03:43:20.561Z,101233.19
2023-03-15T03:53:42.006Z,101260.47
2023-03-15T04:04:03.432Z,101278.31
2023-03-15T04:14:25.397Z,101303.03
2023-03-15T04:24:50.663Z,101316.59
2023-03-15T04:35:12.030Z,101344.59
2023-03-15T04:45:33.419Z,101343.63
2023-03-15T04:55:54.820Z,101347.81
2023-03-15T05:06:16.174Z,101363.13
2023-03-15T05:16:37.588Z,101372.41
2023-03-15T05:26:58.957Z,101390.16
2023-03-15T05:37:21.765Z,101416.59
2023-03-15T05:47:43.139Z,101444.72
2023-03-15T05:58:04.916Z,101456.53
2023-03-15T06:08:26.882Z,101475.28
2023-03-15T06:18:48.249Z,101471.94
2023-03-15T06:29:09.638Z,101494.91
2023-03-15T06:39:34.302Z,101524.66
2023-03-15T06:49:56.893Z,101545.94
2023-03-15T07:00:18.544Z,101563.13
2023-03-15T07:10:39.965Z,101580.31
2023-03-15T07:21:02.509Z,101589.00
2023-03-15T07:31:24.005Z,101598.66
2023-03-15T07:41:45.387Z,101619.38
2023-03-15T07:52:06.972Z,101617.91
2023-03-15T08:02:30.574Z,101625.03
2023-03-15T08:12:52.450Z,101630.47
2023-03-15T08:23:16.398Z,101654.50
2023-03-15T08:33:37.782Z,101677.75
2023-03-15T08:43:59.121Z,101687.25
2023-03-15T08:54:21.489Z,101707.91
2023-03-15T09:04:42.999Z,101724.25
2023-03-15T09:15:06.938Z,101722.66
2023-03-15T09:25:29.346Z,101720.19
2023-03-15T09:35:51.554Z,101738.31
2023-03-15T09:46:28.075Z,101764.09
2023-03-15T09:57:18.909Z,101864.41
2023-03-15T10:07:41.146Z,101893.97
2023-03-15T10:18:14.964Z,101893.59
2023-03-15T10:28:37.621Z,101870.78
2023-03-15T10:38:59.230Z,101845.53
2023-03-15T10:49:20.664Z,101860.63
2023-03-15T10:59:58.729Z,101923.25
2023-03-15T11:10:25.244Z,101952.09
2023-03-15T11:20:46.641Z,101945.44
2023-03-15T11:31:08.198Z,101952.63
2023-03-15T11:41:42.701Z,101968.25
2023-03-15T11:52:04.948Z,101988.00
2023-03-15T12:02:26.436Z,101972.53
2023-03-15T12:12:56.604Z,101971.06
2023-03-15T12:23:17.982Z,101913.97
2023-03-15T12:33:48.017Z,101915.06
2023-03-15T12:44:27.702Z,101916.94
2023-03-15T12:54:52.009Z,101923.31
2023-03-15T13:05:16.801Z,101905.63
2023-03-15T13:15:43.457Z,101903.19
2023-03-15T13:26:19.725Z,101888.97
2023-03-15T13:36:44.356Z,101895.13
2023-03-15T13:47:10.186Z,101904.66
2023-03-15T13:57:31.636Z,101912.44
2023-03-15T14:07:59.174Z,101927.03
2023-03-15T14:18:25.189Z,101916.81
2023-03-15T14:28:52.025Z,101920.28
2023-03-15T14:39:23.811Z,101920.31
2023-03-15T14:49:46.073Z,101906.56
2023-03-15T15:00:10.695Z,101915.97
2023-03-15T15:10:32.291Z,101915.06
2023-03-15T15:20:55.951Z,101926.06
2023-03-15T15:31:19.060Z,101917.22
2023-03-15T15:41:40.458Z,101907.56
2023-03-15T15:52:01.900Z,101909.94
2023-03-15T16:02:23.543Z,101912.22
2023-03-15T16:12:45.576Z,101925.25
2023-03-15T16:23:07.166Z,101917.72
2023-03-15T16:33:28.627Z,101941.22
2023-03-15T16:43:50.042Z,101946.59
2023-03-15T16:54:21.758Z,101953.63
2023-03-15T17:04:46.086Z,101968.31
2023-03-15T17:15:07.765Z,101984.69
2023-03-15T17:25:29.221Z,102001.84
2023-03-15T17:35:54.754Z,102006.94
2023-03-15T17:46:20.242Z,102009.41
2023-03-15T17:56:41.640Z,102007.59
2023-03-15T18:07:03.024Z,102022.88
2023-03-15T18:17:24.388Z,102028.75
2023-03-15T18:27:45.937Z,102039.72
2023-03-15T18:38:07.353Z,102060.88
2023-03-15T18:48:40.056Z,102065.84
2023-03-15T18:59:02.365Z,102070.91
2023-03-15T19:09:23.751Z,102079.47
2023-03-15T19:19:45.105Z,102097.28
2023-03-15T19:30:09.047Z,102093.69
2023-03-15T19:40:30.553Z,102101.16
2023-03-15T19:50:51.927Z,102098.38
2023-03-15T20:01:13.627Z,102096.41
2023-03-15T20:11:35.034Z,102115.88
2023-03-15T20:21:57.856Z,102119.19
2023-03-15T20:32:19.235Z,102121.63
2023-03-15T20:42:41.236Z,102115.56
2023-03-15T20:53:05.057Z,102111.97
2023-03-15T21:03:26.562Z,102116.94
2023-03-15T21:13:48.059Z,102119.41
2023-03-15T21:24:10.077Z,102125.22
2023-03-15T21:34:31.469Z,102124.19
2023-03-15T21:44:53.690Z,102138.50
2023-03-15T21:55:15.557Z,102138.19
2023-03-15T22:05:37.047Z,102132.91
2023-03-15T22:15:58.751Z,102130.16
2023-03-15T22:26:20.107Z,102134.34
2023-03-15T22:36:42.723Z,102113.69
2023-03-15T22:47:04.139Z,102129.81
2023-03-15T22:57:25.521Z,102128.78
2023-03-15T23:07:47.414Z,102129.53
2023-03-15T23:18:09.504Z,102132.84
2023-03-15T23:28:31.615Z,102133.69
2023-03-15T23:38:53.319Z,102144.03
2023-03-15T23:49:14.763Z,102133.78
2023-03-15T23:59:36.535Z,102132.19
